createdAt,value
2017-08-23T00:00:25.988Z,10.1
2017-08-23T00:01:28.869Z,10.1
2017-08-23T00:02:32.404Z,10.1
2017-08-23T00:03:34.902Z,10.1
2017-08-23T00:04:37.734Z,10.1
2017-08-23T00:05:40.569Z,10.1
2017-08-23T00:06:43.388Z,10
2017-08-23T00:07:45.894Z,10
2017-08-23T00:08:49.071Z,10
2017-08-23T00:09:51.944Z,10
2017-08-23T00:10:54.612Z,10
2017-08-23T00:11:57.446Z,10.1
2017-08-23T00:13:00.282Z,10.1
2017-08-23T00:14:03.144Z,10
2017-08-23T00:15:06.668Z,10
2017-08-23T00:16:09.177Z,10
2017-08-23T00:17:12.019Z,10
2017-08-23T00:18:14.519Z,10
2017-08-23T00:19:17.016Z,10
2017-08-23T00:20:19.519Z,10
2017-08-23T00:21:22.375Z,10
2017-08-23T00:22:24.901Z,10
2017-08-23T00:23:27.410Z,10
2017-08-23T00:24:30.247Z,10
2017-08-23T00:25:32.731Z,10
2017-08-23T00:26:36.634Z,10
2017-08-23T00:27:39.487Z,10
2017-08-23T00:28:41.995Z,10
2017-08-23T00:29:44.500Z,10
2017-08-23T00:30:46.997Z,9.9
2017-08-23T00:31:49.490Z,10
2017-08-23T00:32:52.009Z,10
2017-08-23T00:33:54.849Z,9.9
2017-08-23T00:34:57.667Z,9.9
2017-08-23T00:36:00.507Z,9.9
2017-08-23T00:37:03.679Z,9.9
2017-08-23T00:38:06.216Z,9.9
2017-08-23T00:39:08.721Z,9.9
2017-08-23T00:40:11.212Z,9.9
2017-08-23T00:41:14.449Z,9.9
2017-08-23T00:42:17.372Z,9.9
2017-08-23T00:43:20.086Z,9.9
2017-08-23T00:44:23.154Z,9.8
2017-08-23T00:45:27.026Z,9.8
2017-08-23T00:46:30.009Z,9.8
2017-08-23T00:47:32.922Z,9.8
2017-08-23T00:48:36.049Z,9.8
2017-08-23T00:49:39.066Z,9.8
2017-08-23T00:50:41.633Z,9.8
2017-08-23T00:51:44.813Z,9.8
2017-08-23T00:52:47.650Z,9.7
2017-08-23T00:53:50.479Z,9.7
2017-08-23T00:54:53.310Z,9.7
2017-08-23T00:55:55.822Z,9.7
2017-08-23T00:56:58.313Z,9.6
2017-08-23T00:58:01.154Z,9.6
2017-08-23T00:59:04.349Z,9.7
2017-08-23T01:00:07.538Z,9.7
2017-08-23T01:01:10.377Z,9.7
2017-08-23T01:02:12.878Z,9.7
2017-08-23T01:03:15.378Z,9.6
2017-08-23T01:04:18.220Z,9.6
2017-08-23T01:05:21.059Z,9.7
2017-08-23T01:06:23.551Z,9.6
2017-08-23T01:07:26.055Z,9.6
2017-08-23T01:08:28.890Z,9.6
2017-08-23T01:09:31.402Z,9.7
2017-08-23T01:10:33.899Z,9.6
2017-08-23T01:11:36.407Z,9.6
2017-08-23T01:12:38.911Z,9.6
2017-08-23T01:13:42.462Z,9.6
2017-08-23T01:14:45.292Z,9.7
2017-08-23T01:15:47.790Z,9.6
2017-08-23T01:16:50.305Z,9.6
2017-08-23T01:17:52.799Z,9.6
2017-08-23T01:18:55.302Z,9.6
2017-08-23T01:19:58.136Z,9.6
2017-08-23T01:21:00.623Z,9.6
2017-08-23T01:22:03.470Z,9.6
2017-08-23T01:23:06.335Z,9.6
2017-08-23T01:24:09.519Z,9.5
2017-08-23T01:25:12.356Z,9.5
2017-08-23T01:26:14.852Z,9.6
2017-08-23T01:27:17.369Z,9.6
2017-08-23T01:28:19.874Z,9.6
2017-08-23T01:29:22.714Z,9.5
2017-08-23T01:30:25.201Z,9.5
2017-08-23T01:31:27.699Z,9.5
2017-08-23T01:32:30.201Z,9.5
2017-08-23T01:33:32.697Z,9.5
2017-08-23T01:34:35.190Z,9.5
2017-08-23T01:35:37.699Z,9.5
2017-08-23T01:36:40.227Z,9.6
2017-08-23T01:37:42.751Z,9.6
2017-08-23T01:38:45.241Z,9.7
2017-08-23T01:39:48.075Z,9.6
2017-08-23T01:40:50.907Z,9.6
2017-08-23T01:41:53.757Z,9.6
2017-08-23T01:42:56.255Z,9.6
2017-08-23T01:43:58.751Z,9.6
2017-08-23T01:45:01.250Z,9.6
2017-08-23T01:46:04.104Z,9.6
2017-08-23T01:47:06.617Z,9.6
2017-08-23T01:48:09.812Z,9.6
2017-08-23T01:49:12.652Z,9.6
2017-08-23T01:50:16.177Z,9.6
2017-08-23T01:51:19.010Z,9.6
2017-08-23T01:52:22.184Z,9.6
2017-08-23T01:53:24.693Z,9.6
2017-08-23T01:54:27.524Z,9.6
2017-08-23T01:55:30.701Z,9.6
2017-08-23T01:56:34.246Z,9.6
2017-08-23T01:57:36.738Z,9.5
2017-08-23T01:58:39.232Z,9.6
2017-08-23T01:59:42.418Z,9.5
2017-08-23T02:00:45.245Z,9.5
2017-08-23T02:01:47.741Z,9.5
2017-08-23T02:02:50.578Z,9.5
2017-08-23T02:03:53.426Z,9.5
2017-08-23T02:04:55.955Z,9.5
2017-08-23T02:05:59.477Z,9.6
2017-08-23T02:07:02.997Z,9.6
2017-08-23T02:08:06.182Z,9.6
2017-08-23T02:09:09.016Z,9.6
2017-08-23T02:10:11.852Z,9.6
2017-08-23T02:11:15.033Z,9.6
2017-08-23T02:12:17.524Z,9.6
2017-08-23T02:13:20.022Z,9.5
2017-08-23T02:14:22.541Z,9.6
2017-08-23T02:15:25.048Z,9.6
2017-08-23T02:16:27.883Z,9.6
2017-08-23T02:17:30.391Z,9.6
2017-08-23T02:18:33.203Z,9.6
2017-08-23T02:19:35.708Z,9.5
2017-08-23T02:20:38.204Z,9.5
2017-08-23T02:21:41.044Z,9.5
2017-08-23T02:22:43.858Z,9.5
2017-08-23T02:23:46.355Z,9.5
2017-08-23T02:24:48.865Z,9.6
2017-08-23T02:25:51.698Z,9.6
2017-08-23T02:26:54.880Z,9.5
2017-08-23T02:27:57.365Z,9.5
2017-08-23T02:28:59.853Z,9.5
2017-08-23T02:30:02.388Z,9.5
2017-08-23T02:31:05.935Z,9.5
2017-08-23T02:32:08.431Z,9.5
2017-08-23T02:33:10.948Z,9.5
2017-08-23T02:34:14.124Z,9.5
2017-08-23T02:35:17.318Z,9.5
2017-08-23T02:36:20.166Z,9.5
2017-08-23T02:37:23.005Z,9.5
2017-08-23T02:38:25.500Z,9.5
2017-08-23T02:39:28.346Z,9.5
2017-08-23T02:40:31.191Z,9.5
2017-08-23T02:41:34.713Z,9.4
2017-08-23T02:42:37.241Z,9.5
2017-08-23T02:43:40.424Z,9.5
2017-08-23T02:44:42.951Z,9.4
2017-08-23T02:45:45.446Z,9.4
2017-08-23T02:46:48.264Z,9.4
2017-08-23T02:47:51.466Z,9.5
2017-08-23T02:48:53.970Z,9.4
2017-08-23T02:49:56.828Z,9.4
2017-08-23T02:51:00.347Z,9.4
2017-08-23T02:52:03.518Z,9.4
2017-08-23T02:53:06.016Z,9.4
2017-08-23T02:54:08.873Z,9.4
2017-08-23T02:55:11.365Z,9.4
2017-08-23T02:56:13.883Z,9.4
2017-08-23T02:57:16.382Z,9.4
2017-08-23T02:58:19.215Z,9.5
2017-08-23T02:59:21.733Z,9.5
2017-08-23T03:00:24.249Z,9.5
2017-08-23T03:01:26.762Z,9.5
2017-08-23T03:02:29.629Z,9.6
2017-08-23T03:03:32.791Z,9.6
2017-08-23T03:04:35.293Z,9.6
2017-08-23T03:05:37.798Z,9.6
2017-08-23T03:06:40.287Z,9.6
2017-08-23T03:07:42.812Z,9.7
2017-08-23T03:08:45.662Z,9.7
2017-08-23T03:09:48.164Z,9.7
2017-08-23T03:10:50.674Z,9.7
2017-08-23T03:11:53.172Z,9.8
2017-08-23T03:12:55.665Z,9.8
2017-08-23T03:13:58.162Z,9.7
2017-08-23T03:15:00.678Z,9.7
2017-08-23T03:16:03.180Z,9.8
2017-08-23T03:17:05.695Z,9.8
2017-08-23T03:18:08.178Z,9.8
2017-08-23T03:19:10.676Z,9.7
2017-08-23T03:20:13.185Z,9.7
2017-08-23T03:21:16.014Z,9.7
2017-08-23T03:22:18.856Z,9.6
2017-08-23T03:23:21.359Z,9.6
2017-08-23T03:24:23.866Z,9.6
2017-08-23T03:25:26.406Z,9.6
2017-08-23T03:26:29.256Z,9.6
2017-08-23T03:27:32.116Z,9.6
2017-08-23T03:28:34.977Z,9.7
2017-08-23T03:29:37.469Z,9.7
2017-08-23T03:30:39.988Z,9.7
2017-08-23T03:31:42.502Z,9.7
2017-08-23T03:32:45.350Z,9.6
2017-08-23T03:33:47.857Z,9.6
2017-08-23T03:34:50.368Z,9.6
2017-08-23T03:35:52.869Z,9.6
2017-08-23T03:36:55.715Z,9.6
2017-08-23T03:37:58.213Z,9.5
2017-08-23T03:39:00.712Z,9.6
2017-08-23T03:40:03.559Z,9.6
2017-08-23T03:41:06.064Z,9.6
2017-08-23T03:42:08.573Z,9.5
2017-08-23T03:43:11.403Z,9.5
2017-08-23T03:44:13.906Z,9.5
2017-08-23T03:45:16.745Z,9.5
2017-08-23T03:46:19.228Z,9.5
2017-08-23T03:47:22.072Z,9.5
2017-08-23T03:48:25.241Z,9.6
2017-08-23T03:49:28.764Z,9.6
2017-08-23T03:50:31.949Z,9.5
2017-08-23T03:51:34.774Z,9.5
2017-08-23T03:52:37.616Z,9.5
2017-08-23T03:53:40.470Z,9.5
2017-08-23T03:54:43.987Z,9.5
2017-08-23T03:55:47.512Z,9.6
2017-08-23T03:56:50.682Z,9.6
2017-08-23T03:57:53.187Z,9.6
2017-08-23T03:58:55.698Z,9.6
2017-08-23T03:59:58.876Z,9.6
2017-08-23T04:01:02.383Z,9.7
2017-08-23T04:02:05.232Z,9.7
2017-08-23T04:03:07.728Z,9.7
2017-08-23T04:04:10.230Z,9.7
2017-08-23T04:05:12.755Z,9.6
2017-08-23T04:06:15.250Z,9.6
2017-08-23T04:07:18.105Z,9.6
2017-08-23T04:08:20.609Z,9.6
2017-08-23T04:09:23.113Z,9.6
2017-08-23T04:10:25.627Z,9.6
2017-08-23T04:11:28.120Z,9.6
2017-08-23T04:12:30.624Z,9.6
2017-08-23T04:13:33.106Z,9.6
2017-08-23T04:14:36.276Z,9.6
2017-08-23T04:15:38.782Z,9.6
2017-08-23T04:16:41.279Z,9.5
2017-08-23T04:17:44.463Z,9.5
2017-08-23T04:18:46.981Z,9.5
2017-08-23T04:19:49.803Z,9.5
2017-08-23T04:20:52.656Z,9.5
2017-08-23T04:21:55.852Z,9.5
2017-08-23T04:22:58.349Z,9.4
2017-08-23T04:24:00.843Z,9.4
2017-08-23T04:25:04.060Z,9.4
2017-08-23T04:26:06.549Z,9.4
2017-08-23T04:27:09.718Z,9.4
2017-08-23T04:28:12.223Z,9.4
2017-08-23T04:29:14.742Z,9.4
2017-08-23T04:30:17.246Z,9.4
2017-08-23T04:31:20.080Z,9.5
2017-08-23T04:32:22.563Z,9.6
2017-08-23T04:33:25.752Z,9.6
2017-08-23T04:34:28.970Z,9.5
2017-08-23T04:35:31.474Z,9.6
2017-08-23T04:36:33.996Z,9.6
2017-08-23T04:37:37.174Z,9.6
2017-08-23T04:38:39.671Z,9.6
2017-08-23T04:39:42.179Z,9.6
2017-08-23T04:40:44.678Z,9.6
2017-08-23T04:41:48.542Z,9.6
2017-08-23T04:42:51.386Z,9.6
2017-08-23T04:43:54.564Z,9.6
2017-08-23T04:44:57.421Z,9.5
2017-08-23T04:46:00.277Z,9.5
2017-08-23T04:47:03.454Z,9.5
2017-08-23T04:48:07.313Z,9.5
2017-08-23T04:49:09.804Z,9.5
2017-08-23T04:50:12.650Z,9.5
2017-08-23T04:51:15.144Z,9.6
2017-08-23T04:52:17.641Z,9.6
2017-08-23T04:53:20.816Z,9.5
2017-08-23T04:54:23.647Z,9.6
2017-08-23T04:55:26.518Z,9.6
2017-08-23T04:56:29.046Z,9.7
2017-08-23T04:57:31.895Z,9.6
2017-08-23T04:58:34.739Z,9.6
2017-08-23T04:59:37.249Z,9.6
2017-08-23T05:00:40.080Z,9.6
2017-08-23T05:01:43.257Z,9.7
2017-08-23T05:02:46.095Z,9.7
2017-08-23T05:03:48.588Z,9.7
2017-08-23T05:04:51.777Z,9.8
2017-08-23T05:05:54.967Z,9.9
2017-08-23T05:06:58.138Z,10
2017-08-23T05:08:00.983Z,10.1
2017-08-23T05:09:03.482Z,10.1
2017-08-23T05:10:06.377Z,10.1
2017-08-23T05:11:09.554Z,10.1
2017-08-23T05:12:12.390Z,10.1
2017-08-23T05:13:14.883Z,10.1
2017-08-23T05:14:17.715Z,10.2
2017-08-23T05:15:20.218Z,10.2
2017-08-23T05:16:23.736Z,10.3
2017-08-23T05:17:26.934Z,10.3
2017-08-23T05:18:29.769Z,10.3
2017-08-23T05:19:32.265Z,10.3
2017-08-23T05:20:35.135Z,10.3
2017-08-23T05:21:37.982Z,10.3
2017-08-23T05:22:40.474Z,10.4
2017-08-23T05:23:43.330Z,10.4
2017-08-23T05:24:45.843Z,10.4
2017-08-23T05:25:48.672Z,10.4
2017-08-23T05:26:51.500Z,10.4
2017-08-23T05:27:54.674Z,10.4
2017-08-23T05:28:57.831Z,10.5
2017-08-23T05:30:01.016Z,10.5
2017-08-23T05:31:03.528Z,10.5
2017-08-23T05:32:06.368Z,10.6
2017-08-23T05:33:09.205Z,10.6
2017-08-23T05:34:11.731Z,10.6
2017-08-23T05:35:14.226Z,10.6
2017-08-23T05:36:16.736Z,10.7
2017-08-23T05:37:19.241Z,10.7
2017-08-23T05:38:21.739Z,10.8
2017-08-23T05:39:24.940Z,10.8
2017-08-23T05:40:27.446Z,10.8
2017-08-23T05:41:30.280Z,10.8
2017-08-23T05:42:33.474Z,10.8
2017-08-23T05:43:36.293Z,10.9
2017-08-23T05:44:38.810Z,10.9
2017-08-23T05:45:41.684Z,11
2017-08-23T05:46:44.526Z,11
2017-08-23T05:47:47.384Z,11
2017-08-23T05:48:49.889Z,11
2017-08-23T05:49:52.713Z,11.1
2017-08-23T05:50:55.555Z,11.1
2017-08-23T05:51:58.723Z,11.1
2017-08-23T05:53:01.233Z,11.2
2017-08-23T05:54:04.077Z,11.1
2017-08-23T05:55:06.648Z,11.2
2017-08-23T05:56:09.148Z,11.1
2017-08-23T05:57:12.008Z,11.1
2017-08-23T05:58:14.492Z,11.2
2017-08-23T05:59:17.337Z,11.1
2017-08-23T06:00:19.840Z,11.1
2017-08-23T06:01:22.709Z,11.2
2017-08-23T06:02:25.904Z,11.2
2017-08-23T06:03:28.414Z,11.2
2017-08-23T06:04:31.252Z,11.2
2017-08-23T06:05:33.796Z,11.2
2017-08-23T06:06:36.300Z,11.2
2017-08-23T06:07:39.128Z,11.2
2017-08-23T06:08:41.629Z,11.3
2017-08-23T06:09:44.496Z,11.3
2017-08-23T06:10:47.680Z,11.3
2017-08-23T06:11:50.512Z,11.4
2017-08-23T06:12:53.017Z,11.4
2017-08-23T06:13:55.856Z,11.4
2017-08-23T06:14:58.392Z,11.5
2017-08-23T06:16:01.917Z,11.5
2017-08-23T06:17:05.078Z,11.5
2017-08-23T06:18:08.266Z,11.6
2017-08-23T06:19:11.148Z,11.6
2017-08-23T06:20:13.655Z,11.7
2017-08-23T06:21:16.164Z,11.7
2017-08-23T06:22:19.019Z,11.7
2017-08-23T06:23:22.200Z,11.8
2017-08-23T06:24:25.057Z,11.8
2017-08-23T06:25:27.896Z,11.8
2017-08-23T06:26:30.405Z,11.9
2017-08-23T06:27:32.914Z,11.9
2017-08-23T06:28:35.431Z,12
2017-08-23T06:29:37.927Z,12.1
2017-08-23T06:30:40.774Z,12.1
2017-08-23T06:31:43.274Z,12.1
2017-08-23T06:32:46.831Z,12.1
2017-08-23T06:33:50.367Z,12.2
2017-08-23T06:34:53.244Z,12.3
2017-08-23T06:35:56.415Z,12.3
2017-08-23T06:36:58.948Z,12.3
2017-08-23T06:38:02.120Z,12.4
2017-08-23T06:39:04.968Z,12.4
2017-08-23T06:40:07.813Z,12.4
2017-08-23T06:41:10.334Z,12.4
2017-08-23T06:42:13.163Z,12.5
2017-08-23T06:43:16.014Z,12.6
2017-08-23T06:44:18.510Z,12.6
2017-08-23T06:45:21.689Z,12.7
2017-08-23T06:46:24.236Z,12.7
2017-08-23T06:47:26.745Z,12.8
2017-08-23T06:48:29.245Z,12.8
2017-08-23T06:49:31.759Z,12.8
2017-08-23T06:50:34.262Z,12.9
2017-08-23T06:51:37.108Z,12.9
2017-08-23T06:52:39.608Z,12.9
2017-08-23T06:53:42.463Z,12.9
2017-08-23T06:54:44.968Z,13
2017-08-23T06:55:47.811Z,13
2017-08-23T06:56:50.335Z,13
2017-08-23T06:57:53.498Z,13
2017-08-23T06:58:56.007Z,13.1
2017-08-23T06:59:58.524Z,13.1
2017-08-23T07:01:01.032Z,13.1
2017-08-23T07:02:03.541Z,13.2
2017-08-23T07:03:06.392Z,13.3
2017-08-23T07:04:08.899Z,13.3
2017-08-23T07:05:11.768Z,13.4
2017-08-23T07:06:14.605Z,13.4
2017-08-23T07:07:17.097Z,13.5
2017-08-23T07:08:19.936Z,13.5
2017-08-23T07:09:22.805Z,13.6
2017-08-23T07:10:25.313Z,13.6
2017-08-23T07:11:27.812Z,13.7
2017-08-23T07:12:30.304Z,13.8
2017-08-23T07:13:32.808Z,13.9
2017-08-23T07:14:35.993Z,13.9
2017-08-23T07:15:38.514Z,14
2017-08-23T07:16:41.013Z,14
2017-08-23T07:17:43.882Z,14.1
2017-08-23T07:18:46.725Z,14.1
2017-08-23T07:19:49.907Z,14.2
2017-08-23T07:20:52.406Z,14.3
2017-08-23T07:21:55.266Z,14.3
2017-08-23T07:22:58.119Z,14.4
2017-08-23T07:24:00.974Z,14.4
2017-08-23T07:25:04.157Z,14.5
2017-08-23T07:26:07.009Z,14.6
2017-08-23T07:27:09.662Z,14.7
2017-08-23T07:28:12.574Z,14.8
2017-08-23T07:29:15.631Z,14.8
2017-08-23T07:30:18.517Z,14.9
2017-08-23T07:31:21.084Z,14.9
2017-08-23T07:32:23.744Z,15
2017-08-23T07:33:26.258Z,15.1
2017-08-23T07:34:28.767Z,15.2
2017-08-23T07:35:31.663Z,15.2
2017-08-23T07:36:34.495Z,15.3
2017-08-23T07:37:37.409Z,15.3
2017-08-23T07:38:40.947Z,15.4
2017-08-23T07:39:43.459Z,15.4
2017-08-23T07:40:46.001Z,15.5
2017-08-23T07:41:48.862Z,15.6
2017-08-23T07:42:51.369Z,15.6
2017-08-23T07:43:53.871Z,15.6
2017-08-23T07:44:56.728Z,15.6
2017-08-23T07:45:59.251Z,15.6
2017-08-23T07:47:01.766Z,15.7
2017-08-23T07:48:04.604Z,15.7
2017-08-23T07:49:07.465Z,15.8
2017-08-23T07:50:09.977Z,15.8
2017-08-23T07:51:12.826Z,15.9
2017-08-23T07:52:15.347Z,16
2017-08-23T07:53:17.879Z,16
2017-08-23T07:54:21.596Z,16
2017-08-23T07:55:24.100Z,16.1
2017-08-23T07:56:26.631Z,16.1
2017-08-23T07:57:29.463Z,16.1
2017-08-23T07:58:31.990Z,16.1
2017-08-23T07:59:34.847Z,16.2
2017-08-23T08:00:38.023Z,16.2
2017-08-23T08:01:40.541Z,16.3
2017-08-23T08:02:44.077Z,16.3
2017-08-23T08:03:46.582Z,16.4
2017-08-23T08:04:49.466Z,16.5
2017-08-23T08:05:52.312Z,16.6
2017-08-23T08:06:54.861Z,16.8
2017-08-23T08:07:57.744Z,16.9
2017-08-23T08:09:00.266Z,17.1
2017-08-23T08:10:03.450Z,17.3
2017-08-23T08:11:05.972Z,17.5
2017-08-23T08:12:08.481Z,17.7
2017-08-23T08:13:10.999Z,17.9
2017-08-23T08:14:13.858Z,18
2017-08-23T08:15:16.708Z,18.1
2017-08-23T08:16:19.236Z,18.3
2017-08-23T08:17:21.758Z,18.4
2017-08-23T08:18:24.279Z,18.5
2017-08-23T08:19:27.460Z,18.5
2017-08-23T08:20:29.967Z,18.7
2017-08-23T08:21:33.280Z,18.6
2017-08-23T08:22:35.998Z,18.6
2017-08-23T08:23:38.510Z,18.6
2017-08-23T08:24:41.088Z,18.7
2017-08-23T08:25:43.645Z,18.8
2017-08-23T08:26:46.838Z,19
2017-08-23T08:27:49.358Z,19
2017-08-23T08:28:52.215Z,19.3
2017-08-23T08:29:55.079Z,19.3
2017-08-23T08:30:57.601Z,19.3
2017-08-23T08:32:00.786Z,19.5
2017-08-23T08:33:04.318Z,19.6
2017-08-23T08:34:07.171Z,19.8
2017-08-23T08:35:09.687Z,19.8
2017-08-23T08:36:12.214Z,20
2017-08-23T08:37:14.730Z,20.1
2017-08-23T08:38:17.566Z,20
2017-08-23T08:39:20.772Z,19.9
2017-08-23T08:40:23.291Z,20
2017-08-23T08:41:25.861Z,19.8
2017-08-23T08:42:28.748Z,20
2017-08-23T08:43:31.691Z,20
2017-08-23T08:44:34.899Z,19.8
2017-08-23T08:45:37.457Z,20.1
2017-08-23T08:46:39.977Z,20
2017-08-23T08:47:42.836Z,20.1
2017-08-23T08:48:45.684Z,20.3
2017-08-23T08:49:48.532Z,20.4
2017-08-23T08:50:51.050Z,20.3
2017-08-23T08:51:53.573Z,20.5
2017-08-23T08:52:56.094Z,20.6
2017-08-23T08:53:59.290Z,20.5
2017-08-23T08:55:01.923Z,20.6
2017-08-23T08:56:04.564Z,20.7
2017-08-23T08:57:07.734Z,20.7
2017-08-23T08:58:10.270Z,20.6
2017-08-23T08:59:13.126Z,20.5
2017-08-23T09:00:16.017Z,20.7
2017-08-23T09:01:18.873Z,20.8
2017-08-23T09:02:21.417Z,20.8
2017-08-23T09:03:27.222Z,20.6
2017-08-23T09:04:29.765Z,20.9
2017-08-23T09:05:32.624Z,21.1
2017-08-23T09:06:35.136Z,21.1
2017-08-23T09:07:37.692Z,20.9
2017-08-23T09:08:40.545Z,21.1
2017-08-23T09:09:43.434Z,21.1
2017-08-23T09:10:46.993Z,21
2017-08-23T09:11:49.495Z,20.7
2017-08-23T09:12:52.363Z,20.8
2017-08-23T09:13:55.222Z,20.9
2017-08-23T09:14:58.079Z,20.9
2017-08-23T09:16:00.615Z,21.1
2017-08-23T09:17:03.471Z,21.3
2017-08-23T09:18:06.682Z,21.3
2017-08-23T09:19:09.561Z,21.3
2017-08-23T09:20:12.424Z,21.3
2017-08-23T09:21:14.960Z,21.5
2017-08-23T09:22:17.831Z,21.6
2017-08-23T09:23:20.364Z,21.6
2017-08-23T09:24:22.895Z,21.6
2017-08-23T09:25:25.437Z,22.1
2017-08-23T09:26:28.642Z,21.9
2017-08-23T09:27:31.504Z,22.1
2017-08-23T09:28:34.014Z,22
2017-08-23T09:29:36.897Z,22
2017-08-23T09:30:39.765Z,22.1
2017-08-23T09:31:43.496Z,22.3
2017-08-23T09:32:46.011Z,21.9
2017-08-23T09:33:48.865Z,22.2
2017-08-23T09:34:51.383Z,22.5
2017-08-23T09:35:54.289Z,22.6
2017-08-23T09:36:56.804Z,22.5
2017-08-23T09:37:59.339Z,22.4
2017-08-23T09:39:02.199Z,22.7
2017-08-23T09:40:05.078Z,22.6
2017-08-23T09:41:08.627Z,22.2
2017-08-23T09:42:11.861Z,22.4
2017-08-23T09:43:15.062Z,22.6
2017-08-23T09:44:17.608Z,22.6
2017-08-23T09:45:20.473Z,22.2
2017-08-23T09:46:23.396Z,22.1
2017-08-23T09:47:26.600Z,22.3
2017-08-23T09:48:29.136Z,22.8
2017-08-23T09:49:31.658Z,23.1
2017-08-23T09:50:34.175Z,22.9
2017-08-23T09:51:36.711Z,22.7
2017-08-23T09:52:39.907Z,22.6
2017-08-23T09:53:42.422Z,22.6
2017-08-23T09:54:44.963Z,22.7
2017-08-23T09:55:47.480Z,22.9
2017-08-23T09:56:49.996Z,23
2017-08-23T09:57:52.867Z,23
2017-08-23T09:58:56.089Z,22.7
2017-08-23T09:59:58.614Z,23
2017-08-23T10:01:01.485Z,23
2017-08-23T10:02:03.997Z,22.9
2017-08-23T10:03:06.531Z,23
2017-08-23T10:04:09.050Z,22.8
2017-08-23T10:05:11.957Z,22.6
2017-08-23T10:06:14.492Z,22.7
2017-08-23T10:07:17.006Z,23
2017-08-23T10:08:19.880Z,23.2
2017-08-23T10:09:22.432Z,23.1
2017-08-23T10:10:24.955Z,23.8
2017-08-23T10:11:27.481Z,24
2017-08-23T10:12:30.003Z,23.8
2017-08-23T10:13:33.202Z,23.7
2017-08-23T10:14:35.729Z,23.6
2017-08-23T10:15:38.270Z,23.3
2017-08-23T10:16:40.825Z,23.2
2017-08-23T10:17:43.707Z,23.3
2017-08-23T10:18:46.580Z,23.4
2017-08-23T10:19:49.095Z,23.8
2017-08-23T10:20:51.967Z,23.9
2017-08-23T10:21:54.505Z,23.4
2017-08-23T10:22:57.720Z,23.1
2017-08-23T10:24:00.253Z,23.1
2017-08-23T10:25:03.118Z,23.1
2017-08-23T10:26:05.972Z,23.1
2017-08-23T10:27:08.850Z,22.9
2017-08-23T10:28:12.062Z,23
2017-08-23T10:29:15.285Z,23
2017-08-23T10:30:17.809Z,22.9
2017-08-23T10:31:20.695Z,22.6
2017-08-23T10:32:23.241Z,22.7
2017-08-23T10:33:25.789Z,22.4
2017-08-23T10:34:28.316Z,22.2
2017-08-23T10:35:30.853Z,21.9
2017-08-23T10:36:33.385Z,21.5
2017-08-23T10:37:36.250Z,21.3
2017-08-23T10:38:38.775Z,21.3
2017-08-23T10:39:41.657Z,21.5
2017-08-23T10:40:44.527Z,21.7
2017-08-23T10:41:48.119Z,22
2017-08-23T10:42:50.640Z,22.3
2017-08-23T10:43:53.191Z,22.5
2017-08-23T10:44:56.096Z,22.4
2017-08-23T10:45:58.969Z,22.4
2017-08-23T10:47:02.190Z,22.6
2017-08-23T10:48:05.068Z,22.8
2017-08-23T10:49:07.923Z,22.8
2017-08-23T10:50:10.787Z,23
2017-08-23T10:51:13.310Z,23.5
2017-08-23T10:52:16.170Z,23.8
2017-08-23T10:53:18.693Z,23.6
2017-08-23T10:54:21.265Z,23.8
2017-08-23T10:55:24.127Z,23.7
2017-08-23T10:56:26.683Z,23.6
2017-08-23T10:57:29.209Z,23.5
2017-08-23T10:58:32.090Z,23.4
2017-08-23T10:59:35.305Z,23.4
2017-08-23T11:00:38.201Z,22.8
2017-08-23T11:01:41.740Z,23.2
2017-08-23T11:02:44.273Z,23.2
2017-08-23T11:03:46.805Z,23.4
2017-08-23T11:04:50.039Z,23.6
2017-08-23T11:05:52.897Z,23.7
2017-08-23T11:06:55.426Z,23.5
2017-08-23T11:07:58.281Z,23.4
2017-08-23T11:09:01.157Z,23.6
2017-08-23T11:10:04.356Z,23.5
2017-08-23T11:11:07.892Z,23.7
2017-08-23T11:12:10.764Z,23.6
2017-08-23T11:13:13.991Z,23.6
2017-08-23T11:14:16.899Z,24.2
2017-08-23T11:15:19.448Z,24.3
2017-08-23T11:16:22.312Z,24.3
2017-08-23T11:17:25.536Z,24.5
2017-08-23T11:18:28.103Z,24.2
2017-08-23T11:19:30.972Z,24.2
2017-08-23T11:20:33.827Z,24.1
2017-08-23T11:21:36.677Z,24.2
2017-08-23T11:22:40.239Z,25.1
2017-08-23T11:23:42.802Z,25.3
2017-08-23T11:24:45.339Z,25.3
2017-08-23T11:25:47.861Z,25.2
2017-08-23T11:26:51.079Z,25.1
2017-08-23T11:27:53.617Z,24.4
2017-08-23T11:28:56.145Z,24.3
2017-08-23T11:29:58.669Z,24.4
2017-08-23T11:31:01.569Z,24.5
2017-08-23T11:32:04.093Z,24.5
2017-08-23T11:33:07.020Z,24.4
2017-08-23T11:34:09.908Z,24.3
2017-08-23T11:35:12.776Z,25
2017-08-23T11:36:15.302Z,25.5
2017-08-23T11:37:17.845Z,25.3
2017-08-23T11:38:20.406Z,25.4
2017-08-23T11:39:22.938Z,24.8
2017-08-23T11:40:25.526Z,24.6
2017-08-23T11:41:28.061Z,25.2
2017-08-23T11:42:30.960Z,25.6
2017-08-23T11:43:34.184Z,25.5
2017-08-23T11:44:37.400Z,25.7
2017-08-23T11:45:40.278Z,26.1
2017-08-23T11:46:43.142Z,25.9
2017-08-23T11:47:45.665Z,25.3
2017-08-23T11:48:48.204Z,24.9
2017-08-23T11:49:50.743Z,25.2
2017-08-23T11:50:53.658Z,25.7
2017-08-23T11:51:56.212Z,25.6
2017-08-23T11:52:59.090Z,25.5
2017-08-23T11:54:02.275Z,25.1
2017-08-23T11:55:05.465Z,25.1
2017-08-23T11:56:07.996Z,25
2017-08-23T11:57:10.548Z,24.7
2017-08-23T11:58:13.770Z,24.8
2017-08-23T11:59:16.616Z,24.8
2017-08-23T12:00:19.160Z,24.7
2017-08-23T12:01:21.690Z,24.6
2017-08-23T12:02:24.564Z,24.6
2017-08-23T12:03:27.437Z,24.7
2017-08-23T12:04:29.955Z,25.5
2017-08-23T12:05:32.836Z,26
2017-08-23T12:06:35.380Z,25.3
2017-08-23T12:07:38.248Z,25.1
2017-08-23T12:08:40.755Z,25.4
2017-08-23T12:09:43.286Z,25.1
2017-08-23T12:10:46.175Z,25.6
2017-08-23T12:11:48.707Z,25.3
2017-08-23T12:12:51.236Z,25.1
2017-08-23T12:13:54.107Z,25.2
2017-08-23T12:14:56.962Z,25.1
2017-08-23T12:15:59.863Z,25.1
2017-08-23T12:17:03.450Z,25
2017-08-23T12:18:06.326Z,24.9
2017-08-23T12:19:08.866Z,25
2017-08-23T12:20:11.393Z,25.4
2017-08-23T12:21:13.916Z,25.5
2017-08-23T12:22:16.781Z,25.5
2017-08-23T12:23:19.654Z,25.4
2017-08-23T12:24:22.173Z,25.5
2017-08-23T12:25:24.716Z,25.4
2017-08-23T12:26:27.245Z,24.9
2017-08-23T12:27:29.777Z,24.8
2017-08-23T12:28:32.305Z,24.9
2017-08-23T12:29:35.177Z,25
2017-08-23T12:30:38.729Z,24.9
2017-08-23T12:31:41.617Z,25.2
2017-08-23T12:32:44.137Z,25.8
2017-08-23T12:33:46.677Z,26
2017-08-23T12:34:49.550Z,26.2
2017-08-23T12:35:52.752Z,26.5
2017-08-23T12:36:55.278Z,26.5
2017-08-23T12:37:57.802Z,26.3
2017-08-23T12:39:01.004Z,25.6
2017-08-23T12:40:03.876Z,25.4
2017-08-23T12:41:06.733Z,25.3
2017-08-23T12:42:09.946Z,25.4
2017-08-23T12:43:13.165Z,25.2
2017-08-23T12:44:16.049Z,25.1
2017-08-23T12:45:18.579Z,25.2
2017-08-23T12:46:21.103Z,25.1
2017-08-23T12:47:24.328Z,25
2017-08-23T12:48:27.545Z,24.8
2017-08-23T12:49:30.073Z,24.9
2017-08-23T12:50:33.306Z,24.9
2017-08-23T12:51:35.842Z,24.7
2017-08-23T12:52:38.373Z,25.5
2017-08-23T12:53:40.906Z,26.1
2017-08-23T12:54:43.775Z,26.4
2017-08-23T12:55:46.307Z,26.3
2017-08-23T12:56:48.871Z,26.4
2017-08-23T12:57:51.733Z,25.7
2017-08-23T12:58:54.970Z,25.2
2017-08-23T12:59:57.832Z,25.6
2017-08-23T13:01:00.699Z,25.9
2017-08-23T13:02:03.567Z,26.3
2017-08-23T13:03:06.786Z,26.5
2017-08-23T13:04:10.028Z,25.9
2017-08-23T13:05:12.910Z,25.9
2017-08-23T13:06:15.795Z,25.8
2017-08-23T13:07:18.670Z,25.4
2017-08-23T13:08:21.183Z,25.1
2017-08-23T13:09:23.712Z,25
2017-08-23T13:10:26.587Z,25.1
2017-08-23T13:11:29.466Z,25.2
2017-08-23T13:12:32.360Z,25.1
2017-08-23T13:13:35.221Z,25.1
2017-08-23T13:14:37.752Z,25.2
2017-08-23T13:15:40.627Z,24.7
2017-08-23T13:16:43.177Z,25
2017-08-23T13:17:45.716Z,25.2
2017-08-23T13:18:48.588Z,25.1
2017-08-23T13:19:51.123Z,25.5
2017-08-23T13:20:54.031Z,25.8
2017-08-23T13:21:56.580Z,25.7
2017-08-23T13:22:59.788Z,25.6
2017-08-23T13:24:03.003Z,25.1
2017-08-23T13:25:05.755Z,24.9
2017-08-23T13:26:08.699Z,25
2017-08-23T13:27:11.235Z,25.1
2017-08-23T13:28:14.521Z,25
2017-08-23T13:29:17.056Z,25.4
2017-08-23T13:30:19.606Z,26.1
2017-08-23T13:31:22.196Z,26.5
2017-08-23T13:32:25.751Z,26.6
2017-08-23T13:33:28.293Z,27
2017-08-23T13:34:30.848Z,26.9
2017-08-23T13:35:33.726Z,27.2
2017-08-23T13:36:36.623Z,27
2017-08-23T13:37:39.492Z,27.1
2017-08-23T13:38:42.366Z,26.7
2017-08-23T13:39:44.915Z,26.2
2017-08-23T13:40:48.125Z,26.3
2017-08-23T13:41:51.324Z,26.6
2017-08-23T13:42:53.857Z,26.8
2017-08-23T13:43:56.404Z,26.7
2017-08-23T13:44:59.312Z,26.8
2017-08-23T13:46:02.974Z,26.7
2017-08-23T13:47:05.524Z,26.7
2017-08-23T13:48:08.401Z,27.1
2017-08-23T13:49:10.939Z,26.8
2017-08-23T13:50:13.485Z,26.7
2017-08-23T13:51:16.027Z,26.2
2017-08-23T13:52:18.583Z,26.7
2017-08-23T13:53:21.119Z,26.7
2017-08-23T13:54:23.993Z,26.2
2017-08-23T13:55:26.525Z,25.9
2017-08-23T13:56:29.058Z,25.8
2017-08-23T13:57:31.590Z,25.7
2017-08-23T13:58:34.148Z,25.9
2017-08-23T13:59:37.011Z,26.4
2017-08-23T14:00:40.224Z,26.8
2017-08-23T14:01:43.582Z,26.6
2017-08-23T14:02:47.546Z,26.8
2017-08-23T14:03:50.090Z,26.7
2017-08-23T14:04:53.315Z,26.4
2017-08-23T14:05:56.490Z,26.4
2017-08-23T14:06:59.722Z,26.9
2017-08-23T14:08:02.946Z,26.8
2017-08-23T14:09:05.821Z,26.8
2017-08-23T14:10:08.683Z,26.6